Time,TemperatureF,DewpointF,PressureIn,WindDirection,WindDirectionDegrees,WindSpeedMPH,WindSpeedGustMPH,Humidity,HourlyPrecipIn,Conditions,Clouds,dailyrainin,SoftwareType,DateUTC
2013-01-06 11:33:00,23.0,22.0,-100.00,East,100,0.0,0.0,96,-99.99,,,-99.99,,2013-01-06 20:33:00,
2013-01-06 12:12:00,22.0,21.0,-100.00,East,90,0.0,0.0,96,-99.99,,,-99.99,,2013-01-06 21:12:00,
2013-01-06 12:22:00,23.0,22.0,-100.00,East,100,0.0,0.0,96,-99.99,,,-99.99,,2013-01-06 21:22:00,
2013-01-06 12:53:00,23.0,22.0,-100.00,East,100,0.0,0.0,95,-99.99,,,-99.99,,2013-01-06 21:53:00,
2013-01-06 13:02:00,23.0,22.0,-100.00,East,100,0.0,0.0,95,-99.99,,,-99.99,,2013-01-06 22:02:00,
2013-01-06 13:22:00,26.0,24.0,-100.00,ESE,105,0.0,0.0,95,-99.99,,,-99.99,,2013-01-06 22:22:00,
2013-01-06 13:33:00,26.0,24.0,-100.00,ESE,105,0.0,0.0,95,-99.99,,,-99.99,,2013-01-06 22:33:00,
2013-01-06 13:43:00,26.0,24.0,-100.00,ESE,105,0.0,0.0,95,-99.99,,,-99.99,,2013-01-06 22:43:00,
2013-01-06 13:52:00,28.0,26.0,-100.00,ENE,75,0.0,0.0,93,-99.99,,,-99.99,,2013-01-06 22:52:00,
2013-01-06 14:02:00,28.0,26.0,-100.00,ENE,75,0.0,0.0,93,-99.99,,,-99.99,,2013-01-06 23:02:00,
2013-01-06 14:12:00,28.0,26.0,-100.00,ENE,75,0.0,0.0,93,-99.99,,,-99.99,,2013-01-06 23:12:00,
2013-01-06 14:22:00,31.0,28.0,-100.00,NE,50,0.0,0.0,88,-99.99,,,-99.99,,2013-01-06 23:22:00,
2013-01-06 14:32:00,31.0,28.0,-100.00,NE,50,0.0,0.0,88,-99.99,,,-99.99,,2013-01-06 23:32:00,
2013-01-06 14:42:00,31.0,28.0,-100.00,NE,50,0.0,0.0,88,-99.99,,,-99.99,,2013-01-06 23:42:00,
2013-01-06 14:53:00,30.0,26.0,-100.00,ESE,105,0.0,0.0,85,-99.99,,,-99.99,,2013-01-06 23:53:00,
2013-01-06 15:02:00,30.0,26.0,-100.00,ESE,105,0.0,0.0,85,-99.99,,,-99.99,,2013-01-07 00:02:00,
2013-01-06 15:12:00,30.0,26.0,-100.00,ESE,105,0.0,0.0,85,-99.99,,,-99.99,,2013-01-07 00:12:00,
2013-01-06 15:22:00,29.0,26.0,-100.00,East,100,0.0,0.0,86,-99.99,,,-99.99,,2013-01-07 00:22:00,
2013-01-06 15:32:00,29.0,26.0,-100.00,East,100,0.0,0.0,86,-99.99,,,-99.99,,2013-01-07 00:32:00,
2013-01-06 15:53:00,31.0,28.0,-100.00,NNE,15,0.0,0.0,88,-99.99,,,-99.99,,2013-01-07 00:53:00,
2013-01-06 16:02:00,31.0,28.0,-100.00,NNE,15,0.0,0.0,88,-99.99,,,-99.99,,2013-01-07 01:02:00,
2013-01-06 16:12:00,31.0,28.0,-100.00,NNE,15,0.0,0.0,88,-99.99,,,-99.99,,2013-01-07 01:12:00,
2013-01-06 16:22:00,32.0,29.0,-100.00,NNE,15,0.0,0.0,87,-99.99,,,-99.99,,2013-01-07 01:22:00,
2013-01-06 16:32:00,32.0,29.0,-100.00,NNE,15,0.0,0.0,87,-99.99,,,-99.99,,2013-01-07 01:32:00,
2013-01-06 16:42:00,32.0,29.0,-100.00,NNE,15,0.0,0.0,87,-99.99,,,-99.99,,2013-01-07 01:42:00,
2013-01-06 17:22:00,35.0,27.0,-100.00,ENE,65,5.0,12.0,75,-99.99,,,-99.99,,2013-01-07 02:22:00,
2013-01-06 17:32:00,35.0,27.0,-100.00,ENE,65,5.0,12.0,75,-99.99,,,-99.99,,2013-01-07 02:32:00,
2013-01-06 17:42:00,35.0,27.0,-100.00,ENE,65,5.0,12.0,75,-99.99,,,-99.99,,2013-01-07 02:42:00,
2013-01-06 17:52:00,34.0,27.0,-100.00,NNE,15,3.0,7.0,76,-99.99,,,-99.99,,2013-01-07 02:52:00,
2013-01-06 18:02:00,34.0,27.0,-100.00,NNE,15,3.0,7.0,76,-99.99,,,-99.99,,2013-01-07 03:02:00,
2013-01-06 18:12:00,34.0,27.0,-100.00,NNE,15,3.0,7.0,76,-99.99,,,-99.99,,2013-01-07 03:12:00,
2013-01-06 18:22:00,34.0,28.0,-100.00,North,0,4.0,10.0,80,-99.99,,,-99.99,,2013-01-07 03:22:00,
2013-01-06 18:32:00,34.0,28.0,-100.00,North,0,4.0,10.0,80,-99.99,,,-99.99,,2013-01-07 03:32:00,
2013-01-06 18:42:00,34.0,28.0,-100.00,North,0,4.0,10.0,80,-99.99,,,-99.99,,2013-01-07 03:42:00,
2013-01-06 18:53:00,34.0,28.0,-100.00,North,10,3.0,9.0,78,-99.99,,,-99.99,,2013-01-07 03:53:00,
2013-01-06 19:02:00,34.0,28.0,-100.00,North,10,3.0,9.0,78,-99.99,,,-99.99,,2013-01-07 04:02:00,
2013-01-06 19:12:00,34.0,28.0,-100.00,North,10,3.0,9.0,78,-99.99,,,-99.99,,2013-01-07 04:12:00,
2013-01-06 19:22:00,33.0,28.0,-100.00,North,0,4.0,12.0,83,-99.99,,,-99.99,,2013-01-07 04:22:00,
2013-01-06 19:32:00,33.0,28.0,-100.00,North,0,4.0,12.0,83,-99.99,,,-99.99,,2013-01-07 04:32:00,
2013-01-06 19:42:00,33.0,28.0,-100.00,North,0,4.0,12.0,83,-99.99,,,-99.99,,2013-01-07 04:42:00,
2013-01-06 20:22:00,33.0,29.0,-100.00,North,0,7.0,12.0,83,-99.99,,,-99.99,,2013-01-07 05:22:00,
2013-01-06 20:32:00,33.0,29.0,-100.00,North,0,7.0,12.0,83,-99.99,,,-99.99,,2013-01-07 05:32:00,
2013-01-06 20:42:00,33.0,29.0,-100.00,North,0,7.0,12.0,83,-99.99,,,-99.99,,2013-01-07 05:42:00,
2013-01-06 20:53:00,31.0,27.0,-100.00,North,0,1.0,11.0,85,-99.99,,,-99.99,,2013-01-07 05:53:00,
2013-01-06 21:02:00,31.0,27.0,-100.00,North,0,1.0,11.0,85,-99.99,,,-99.99,,2013-01-07 06:02:00,
2013-01-06 21:12:00,31.0,27.0,-100.00,North,0,1.0,11.0,85,-99.99,,,-99.99,,2013-01-07 06:12:00,
2013-01-06 21:22:00,31.0,28.0,-100.00,NNW,330,5.0,12.0,89,-99.99,,,-99.99,,2013-01-07 06:22:00,
2013-01-06 21:32:00,31.0,28.0,-100.00,NNW,330,5.0,12.0,89,-99.99,,,-99.99,,2013-01-07 06:32:00,
2013-01-06 21:42:00,31.0,28.0,-100.00,NNW,330,5.0,12.0,89,-99.99,,,-99.99,,2013-01-07 06:42:00,
2013-01-06 21:52:00,31.0,28.0,-100.00,NNE,15,4.0,8.0,89,-99.99,,,-99.99,,2013-01-07 06:52:00,
2013-01-06 22:02:00,31.0,28.0,-100.00,NNE,15,4.0,8.0,89,-99.99,,,-99.99,,2013-01-07 07:02:00,
2013-01-06 22:11:00,31.0,28.0,-100.00,NNE,15,4.0,8.0,89,-99.99,,,-99.99,,2013-01-07 07:11:00,
2013-01-06 22:22:00,31.0,28.0,-100.00,NNE,15,5.0,12.0,88,-99.99,,,-99.99,,2013-01-07 07:22:00,
2013-01-06 22:32:00,31.0,28.0,-100.00,NNE,15,5.0,12.0,88,-99.99,,,-99.99,,2013-01-07 07:32:00,
2013-01-06 22:42:00,31.0,28.0,-100.00,NNE,15,5.0,12.0,88,-99.99,,,-99.99,,2013-01-07 07:42:00,
2013-01-06 22:52:00,31.0,28.0,-100.00,NNE,15,5.0,12.0,88,-99.99,,,-99.99,,2013-01-07 07:52:00,
2013-01-06 23:22:00,31.0,27.0,-100.00,North,10,2.0,7.0,86,-99.99,,,-99.99,,2013-01-07 08:22:00,
2013-01-06 23:32:00,31.0,27.0,-100.00,North,10,2.0,7.0,86,-99.99,,,-99.99,,2013-01-07 08:32:00,
2013-01-06 23:42:00,31.0,27.0,-100.00,North,10,2.0,7.0,86,-99.99,,,-99.99,,2013-01-07 08:42:00,
2013-01-06 23:52:00,30.0,27.0,-100.00,NE,40,2.0,6.0,87,-99.99,,,-99.99,,2013-01-07 08:52:00,